Linjiang, China
Current Conditions -  °F | °C
As of 7:00 PM on Friday 28 Nov 2014 (Local Time) from ZYCC Reporting Station
Smoke Smoke  
Wind Chill: 23°   Ceiling: Unl
Heat Index: 23°   Visibility: 1.7mi
Dew Point:   Wind: 2mph
Humidity: 39%   Direction: NA
Pressure: 30.09"   Gusts: NA
Location:  41.82°N, 126.91°E
Report Text: ZYCC 281100Z VRB01MPS 2800 FU NSC M05/M17 Q1019 BECMG TL12303000
Loading
Personal Weather Stations






























Interactive Weather Map New forecast layout! Learn more

10-Day Weather Forecast

Advertisements
Track Severe Weather on mobile